createdAt,value
2019-02-19T00:00:40.328Z,6.63
2019-02-19T00:03:09.719Z,6.90
2019-02-19T00:05:39.201Z,4.70
2019-02-19T00:08:08.699Z,5.13
2019-02-19T00:10:38.240Z,4.70
2019-02-19T00:13:07.856Z,5.53
2019-02-19T00:15:37.340Z,4.40
2019-02-19T00:18:06.802Z,4.27
2019-02-19T00:20:36.192Z,4.60
2019-02-19T00:23:05.854Z,5.27
2019-02-19T00:25:35.344Z,6.47
2019-02-19T00:28:05.018Z,5.67
2019-02-19T00:30:34.471Z,5.37
2019-02-19T00:33:04.191Z,4.87
2019-02-19T00:35:33.927Z,4.80
2019-02-19T00:38:03.500Z,4.43
2019-02-19T00:40:33.293Z,3.90
2019-02-19T00:43:03.139Z,3.80
2019-02-19T00:45:32.799Z,6.23
2019-02-19T00:48:02.431Z,5.63
2019-02-19T00:50:32.328Z,6.97
2019-02-19T00:53:01.882Z,8.57
2019-02-19T00:55:31.270Z,10.33
2019-02-19T00:58:00.938Z,7.90
2019-02-19T01:00:30.418Z,5.60
2019-02-19T01:03:00.011Z,4.53
2019-02-19T01:05:29.686Z,5.37
2019-02-19T01:07:59.329Z,5.57
2019-02-19T01:10:28.815Z,7.80
2019-02-19T01:12:58.336Z,6.70
2019-02-19T01:15:27.886Z,7.60
2019-02-19T01:17:57.715Z,7.93
2019-02-19T01:20:27.238Z,7.10
2019-02-19T01:22:56.895Z,5.30
2019-02-19T01:25:26.597Z,7.33
2019-02-19T01:27:56.372Z,5.10
2019-02-19T01:30:26.066Z,5.60
2019-02-19T01:32:55.671Z,4.00
2019-02-19T01:35:25.332Z,3.43
2019-02-19T01:37:55.198Z,3.40
2019-02-19T01:40:24.596Z,3.53
2019-02-19T01:42:54.254Z,3.50
2019-02-19T01:45:23.770Z,3.57
2019-02-19T01:47:53.511Z,3.10
2019-02-19T01:50:22.887Z,3.90
2019-02-19T01:52:52.428Z,7.93
2019-02-19T01:55:22.232Z,9.50
2019-02-19T01:57:51.956Z,8.80
2019-02-19T02:00:21.815Z,6.93
2019-02-19T02:02:51.581Z,7.07
2019-02-19T02:05:21.174Z,7.13
2019-02-19T02:07:50.606Z,5.47
2019-02-19T02:10:20.305Z,5.80
2019-02-19T02:12:49.777Z,8.07
2019-02-19T02:15:19.388Z,8.90
2019-02-19T02:17:49.060Z,9.40
2019-02-19T02:20:18.552Z,7.93
2019-02-19T02:22:48.332Z,5.60
2019-02-19T02:25:17.925Z,5.67
2019-02-19T02:27:47.585Z,5.73
2019-02-19T02:30:17.315Z,4.97
2019-02-19T02:32:47.055Z,5.27
2019-02-19T02:35:16.790Z,5.30
2019-02-19T02:37:46.432Z,5.23
2019-02-19T02:40:16.193Z,5.10
2019-02-19T02:42:45.993Z,4.57
2019-02-19T02:45:15.361Z,4.40
2019-02-19T02:47:44.768Z,4.77
2019-02-19T02:50:14.612Z,4.37
2019-02-19T02:52:44.333Z,4.53
2019-02-19T02:55:13.880Z,4.83
2019-02-19T02:57:43.328Z,5.27
2019-02-19T03:00:13.260Z,4.93
2019-02-19T03:02:42.900Z,5.13
2019-02-19T03:05:12.449Z,5.00
2019-02-19T03:07:45.507Z,5.07
2019-02-19T03:10:15.101Z,5.47
2019-02-19T03:12:44.652Z,4.80
2019-02-19T03:15:15.010Z,5.00
2019-02-19T03:17:44.672Z,5.30
2019-02-19T03:20:14.063Z,5.90
2019-02-19T03:22:43.550Z,5.80
2019-02-19T03:25:13.060Z,5.47
2019-02-19T03:27:42.541Z,4.97
2019-02-19T03:30:12.381Z,4.67
2019-02-19T03:32:41.918Z,4.53
2019-02-19T03:35:11.626Z,6.07
2019-02-19T03:37:41.445Z,4.87
2019-02-19T03:40:11.260Z,6.50
2019-02-19T03:42:40.645Z,6.00
2019-02-19T03:45:11.276Z,6.67
2019-02-19T03:47:40.998Z,6.20
2019-02-19T03:50:10.387Z,5.00
2019-02-19T03:52:39.914Z,4.60
2019-02-19T03:55:09.384Z,6.40
2019-02-19T03:57:38.785Z,6.67
2019-02-19T04:00:08.951Z,6.43
2019-02-19T04:02:38.750Z,7.33
2019-02-19T04:05:08.229Z,5.43
2019-02-19T04:07:37.791Z,6.17
2019-02-19T04:10:07.932Z,5.67
2019-02-19T04:12:37.667Z,6.57
2019-02-19T04:15:07.607Z,5.63
2019-02-19T04:17:37.248Z,5.30
2019-02-19T04:20:07.339Z,6.73
2019-02-19T04:22:37.030Z,10.17
2019-02-19T04:25:06.623Z,20.00
2019-02-19T04:27:36.247Z,28.00
2019-02-19T04:30:06.257Z,8.33
2019-02-19T04:32:36.004Z,7.00
2019-02-19T04:35:05.972Z,7.03
2019-02-19T04:37:35.776Z,7.77
2019-02-19T04:40:05.593Z,6.83
2019-02-19T04:42:35.193Z,6.43
2019-02-19T04:45:05.131Z,6.57
2019-02-19T04:47:34.821Z,6.60
2019-02-19T04:50:04.302Z,6.07
2019-02-19T04:52:34.030Z,7.00
2019-02-19T04:55:04.049Z,8.53
2019-02-19T04:57:33.765Z,7.60
2019-02-19T05:00:03.242Z,7.20
2019-02-19T05:02:32.990Z,8.60
2019-02-19T05:05:02.747Z,14.83
2019-02-19T05:07:32.417Z,22.60
2019-02-19T05:10:01.994Z,15.13
2019-02-19T05:12:31.608Z,18.37
2019-02-19T05:15:01.323Z,24.87
2019-02-19T05:17:30.821Z,20.73
2019-02-19T05:20:00.267Z,29.63
2019-02-19T05:22:29.973Z,26.50
2019-02-19T05:24:59.804Z,21.90
2019-02-19T05:27:29.278Z,15.03
2019-02-19T05:29:58.951Z,15.03
2019-02-19T05:32:28.737Z,11.80
2019-02-19T05:34:58.494Z,7.03
2019-02-19T05:37:27.949Z,8.37
2019-02-19T05:39:57.474Z,7.63
2019-02-19T05:42:27.083Z,7.87
2019-02-19T05:44:56.579Z,5.63
2019-02-19T05:47:26.305Z,8.13
2019-02-19T05:49:55.693Z,9.43
2019-02-19T05:52:25.209Z,9.27
2019-02-19T05:54:54.926Z,9.03
2019-02-19T05:57:24.322Z,11.07
2019-02-19T05:59:53.807Z,10.57
2019-02-19T06:02:23.609Z,9.43
2019-02-19T06:04:53.137Z,13.20
2019-02-19T06:07:22.859Z,26.63
2019-02-19T06:09:52.530Z,22.80
2019-02-19T06:12:22.277Z,24.40
2019-02-19T06:14:51.679Z,13.93
2019-02-19T06:17:21.270Z,23.43
2019-02-19T06:19:51.109Z,34.67
2019-02-19T06:22:20.719Z,29.43
2019-02-19T06:24:50.345Z,26.97
2019-02-19T06:27:20.179Z,11.67
2019-02-19T06:29:49.942Z,28.83
2019-02-19T06:32:19.734Z,34.03
2019-02-19T06:34:49.336Z,54.30
2019-02-19T06:37:19.157Z,47.97
2019-02-19T06:39:48.748Z,48.67
2019-02-19T06:42:18.163Z,67.60
2019-02-19T06:44:47.934Z,62.00
2019-02-19T06:47:17.614Z,53.83
2019-02-19T06:49:47.287Z,60.57
2019-02-19T06:52:17.090Z,42.63
2019-02-19T06:54:46.828Z,36.30
2019-02-19T06:57:16.526Z,46.97
2019-02-19T06:59:46.123Z,29.30
2019-02-19T07:02:28.855Z,28.60
2019-02-19T07:05:00.419Z,28.47
2019-02-19T07:07:29.896Z,20.70
2019-02-19T07:09:59.286Z,17.43
2019-02-19T07:12:29.009Z,18.07
2019-02-19T07:14:58.546Z,17.93
2019-02-19T07:17:28.230Z,18.37
2019-02-19T07:19:57.979Z,19.33
2019-02-19T07:22:27.735Z,18.97
2019-02-19T07:24:57.348Z,14.87
2019-02-19T07:27:26.948Z,22.83
2019-02-19T07:29:56.671Z,20.77
2019-02-19T07:32:26.151Z,21.10
2019-02-19T07:34:55.670Z,19.63
2019-02-19T07:37:25.396Z,18.33
2019-02-19T07:39:55.210Z,21.70
2019-02-19T07:42:25.051Z,22.23
2019-02-19T07:44:54.602Z,20.40
2019-02-19T07:47:24.856Z,21.30
2019-02-19T07:49:54.381Z,22.40
2019-02-19T07:52:24.262Z,20.93
2019-02-19T07:54:53.850Z,16.23
2019-02-19T07:57:23.521Z,17.03
2019-02-19T07:59:54.211Z,17.70
2019-02-19T08:02:23.788Z,19.97
2019-02-19T08:04:53.403Z,19.33
2019-02-19T08:07:22.865Z,19.93
2019-02-19T08:09:52.749Z,44.40
2019-02-19T08:12:22.539Z,25.07
2019-02-19T08:14:52.008Z,19.00
2019-02-19T08:17:21.469Z,21.17
2019-02-19T08:19:51.174Z,20.17
2019-02-19T08:22:20.767Z,20.23
2019-02-19T08:24:50.360Z,31.37
2019-02-19T08:27:20.189Z,32.07
2019-02-19T08:29:49.697Z,35.07
2019-02-19T08:32:19.141Z,22.17
2019-02-19T08:34:48.825Z,27.00
2019-02-19T08:37:18.503Z,23.63
2019-02-19T08:39:48.096Z,53.63
2019-02-19T08:42:17.545Z,37.63
2019-02-19T08:44:47.035Z,34.67
2019-02-19T08:47:16.616Z,27.83
2019-02-19T08:49:46.267Z,21.10
2019-02-19T08:52:15.792Z,26.33
2019-02-19T08:54:45.560Z,23.83
2019-02-19T08:57:15.259Z,23.13
2019-02-19T08:59:44.855Z,23.90
2019-02-19T09:02:14.588Z,28.33
2019-02-19T09:04:44.439Z,26.77
2019-02-19T09:07:14.205Z,20.20
2019-02-19T09:09:43.889Z,24.53
2019-02-19T09:12:13.678Z,21.30
2019-02-19T09:14:43.407Z,22.53
2019-02-19T09:17:13.196Z,19.30
2019-02-19T09:19:43.121Z,22.27
2019-02-19T09:22:12.848Z,24.30
2019-02-19T09:24:42.475Z,21.27
2019-02-19T09:27:12.222Z,20.70
2019-02-19T09:29:42.003Z,21.37
2019-02-19T09:32:11.682Z,22.87
2019-02-19T09:34:41.302Z,22.20
2019-02-19T09:37:10.755Z,21.00
2019-02-19T09:39:40.242Z,25.33
2019-02-19T09:42:09.902Z,24.10
2019-02-19T09:44:39.309Z,23.80
2019-02-19T09:47:09.038Z,19.53
2019-02-19T09:49:38.833Z,22.70
2019-02-19T09:52:08.275Z,21.70
2019-02-19T09:54:37.946Z,16.47
2019-02-19T09:57:07.543Z,14.50
2019-02-19T09:59:37.169Z,16.67
2019-02-19T10:02:06.982Z,18.73
2019-02-19T10:04:36.739Z,15.90
2019-02-19T10:07:06.497Z,15.30
2019-02-19T10:09:36.171Z,16.07
2019-02-19T10:12:05.835Z,16.53
2019-02-19T10:14:35.527Z,15.93
2019-02-19T10:17:05.322Z,15.07
2019-02-19T10:19:34.926Z,13.23
2019-02-19T10:22:04.729Z,21.00
2019-02-19T10:24:34.471Z,14.63
2019-02-19T10:27:04.348Z,20.23
2019-02-19T10:29:34.071Z,15.07
2019-02-19T10:32:03.524Z,10.47
2019-02-19T10:34:33.295Z,11.97
2019-02-19T10:37:02.944Z,12.60
2019-02-19T10:39:32.770Z,11.83
2019-02-19T10:42:02.218Z,11.90
2019-02-19T10:44:31.597Z,11.80
2019-02-19T10:47:01.038Z,11.03
2019-02-19T10:49:30.742Z,11.63
2019-02-19T10:52:00.427Z,11.10
2019-02-19T10:54:30.071Z,12.28
2019-02-19T10:56:59.663Z,11.22
2019-02-19T10:59:29.462Z,10.05
2019-02-19T11:01:59.263Z,12.80
2019-02-19T11:04:28.868Z,10.98
2019-02-19T11:06:58.596Z,11.93
2019-02-19T11:09:28.293Z,13.28
2019-02-19T11:11:58.154Z,10.78
2019-02-19T11:14:27.872Z,9.88
2019-02-19T11:16:57.420Z,10.90
2019-02-19T11:19:26.810Z,11.05
2019-02-19T11:21:56.361Z,11.48
2019-02-19T11:24:26.153Z,10.82
2019-02-19T11:26:55.882Z,12.15
2019-02-19T11:29:25.443Z,13.08
2019-02-19T11:31:55.180Z,11.35
2019-02-19T11:34:24.671Z,11.55
2019-02-19T11:36:54.363Z,12.95
2019-02-19T11:39:24.083Z,12.73
2019-02-19T11:41:53.718Z,14.33
2019-02-19T11:44:23.232Z,12.37
2019-02-19T11:46:52.997Z,13.85
2019-02-19T11:49:22.393Z,14.50
2019-02-19T11:51:52.115Z,14.38
2019-02-19T11:54:21.980Z,14.75
2019-02-19T11:56:51.753Z,14.75
2019-02-19T11:59:21.274Z,14.95
2019-02-19T12:01:51.123Z,14.70
2019-02-19T12:04:20.513Z,15.78
2019-02-19T12:06:49.994Z,13.93
2019-02-19T12:09:19.849Z,13.72
2019-02-19T12:11:49.385Z,18.70
2019-02-19T12:14:18.967Z,16.57
2019-02-19T12:16:48.821Z,16.52
2019-02-19T12:19:18.440Z,13.65
2019-02-19T12:21:48.218Z,13.80
2019-02-19T12:24:17.702Z,22.13
2019-02-19T12:26:47.597Z,14.07
2019-02-19T12:29:17.272Z,12.70
2019-02-19T12:31:47.045Z,14.78
2019-02-19T12:34:16.626Z,15.58
2019-02-19T12:36:46.460Z,14.65
2019-02-19T12:39:15.950Z,15.20
2019-02-19T12:41:45.779Z,16.85
2019-02-19T12:44:15.276Z,24.00
2019-02-19T12:46:45.085Z,16.17
2019-02-19T12:49:16.439Z,15.63
2019-02-19T12:51:46.261Z,14.65
2019-02-19T12:54:15.761Z,15.43
2019-02-19T12:56:45.565Z,16.07
2019-02-19T12:59:15.212Z,16.23
2019-02-19T13:01:45.060Z,22.35
2019-02-19T13:04:14.914Z,19.73
2019-02-19T13:06:44.363Z,17.37
2019-02-19T13:09:13.762Z,17.15
2019-02-19T13:11:43.493Z,16.52
2019-02-19T13:14:13.379Z,16.05
2019-02-19T13:16:42.848Z,15.25
2019-02-19T13:19:12.256Z,13.98
2019-02-19T13:21:41.872Z,15.63
2019-02-19T13:24:11.362Z,15.68
2019-02-19T13:26:40.922Z,16.30
2019-02-19T13:29:10.649Z,16.63
2019-02-19T13:31:40.480Z,18.93
2019-02-19T13:34:10.308Z,17.90
2019-02-19T13:36:40.085Z,16.03
2019-02-19T13:39:09.748Z,15.93
2019-02-19T13:41:39.187Z,16.00
2019-02-19T13:44:09.027Z,15.60
2019-02-19T13:46:38.471Z,14.90
2019-02-19T13:49:12.252Z,16.23
2019-02-19T13:51:39.502Z,15.70
2019-02-19T13:54:26.874Z,16.40
2019-02-19T13:56:56.510Z,18.20
2019-02-19T13:59:26.252Z,18.67
2019-02-19T14:01:55.720Z,17.40
2019-02-19T14:04:25.428Z,20.30
2019-02-19T14:06:54.882Z,16.70
2019-02-19T14:09:24.467Z,17.30
2019-02-19T14:11:53.949Z,15.70
2019-02-19T14:14:40.457Z,18.10
2019-02-19T14:17:12.855Z,18.33
2019-02-19T14:19:47.915Z,21.10
2019-02-19T14:22:35.361Z,19.07
2019-02-19T14:25:39.286Z,18.93
2019-02-19T14:28:26.748Z,20.73
2019-02-19T14:31:13.383Z,21.60
2019-02-19T14:34:00.607Z,19.80
2019-02-19T14:36:48.127Z,16.97
2019-02-19T14:39:36.630Z,16.33
2019-02-19T14:42:31.192Z,18.73
2019-02-19T14:45:10.190Z,18.90
2019-02-19T14:47:57.395Z,19.17
2019-02-19T14:50:44.477Z,19.43
2019-02-19T14:53:31.657Z,17.20
2019-02-19T14:56:19.389Z,19.40
2019-02-19T14:59:06.912Z,22.17
2019-02-19T15:02:07.689Z,27.67
2019-02-19T15:04:56.821Z,27.87
2019-02-19T15:07:57.645Z,27.47
2019-02-19T15:10:49.272Z,24.37
2019-02-19T15:13:38.728Z,31.87
2019-02-19T15:16:45.618Z,41.03
2019-02-19T15:19:25.909Z,41.00
2019-02-19T15:22:13.320Z,51.60
2019-02-19T15:25:01.435Z,50.67
2019-02-19T15:27:36.492Z,44.70
2019-02-19T15:30:14.891Z,45.03
2019-02-19T15:33:03.124Z,69.50
2019-02-19T15:35:50.397Z,47.13
2019-02-19T15:38:37.582Z,30.63
2019-02-19T15:41:25.977Z,25.00
2019-02-19T15:44:04.467Z,43.90
2019-02-19T15:46:55.970Z,84.33
2019-02-19T15:49:50.336Z,79.73
2019-02-19T15:52:41.933Z,74.87
2019-02-19T15:55:29.239Z,51.57
2019-02-19T15:58:17.848Z,60.00
2019-02-19T16:01:05.580Z,46.13
2019-02-19T16:03:56.732Z,31.23
2019-02-19T16:06:45.288Z,32.17
2019-02-19T16:09:31.210Z,31.63
2019-02-19T16:12:24.473Z,35.13
2019-02-19T16:15:30.491Z,34.70
2019-02-19T16:18:11.556Z,36.57
2019-02-19T16:21:02.917Z,42.77
2019-02-19T16:23:54.454Z,31.47
2019-02-19T16:26:58.368Z,31.47
2019-02-19T16:29:52.651Z,30.23
2019-02-19T16:32:39.892Z,25.83
2019-02-19T16:35:14.479Z,26.87
2019-02-19T16:38:02.901Z,28.93
2019-02-19T16:40:50.365Z,32.03
2019-02-19T16:43:37.640Z,30.30
2019-02-19T16:46:30.467Z,27.23
2019-02-19T16:49:18.877Z,25.90
2019-02-19T16:52:16.707Z,25.33
2019-02-19T16:55:11.135Z,22.50
2019-02-19T16:57:51.790Z,23.37
2019-02-19T17:00:46.187Z,23.43
2019-02-19T17:03:22.437Z,25.10
2019-02-19T17:06:17.237Z,24.60
2019-02-19T17:08:53.301Z,24.80
2019-02-19T17:11:47.817Z,23.00
2019-02-19T17:14:32.708Z,19.37
2019-02-19T17:17:14.883Z,24.17
2019-02-19T17:20:00.549Z,20.43
2019-02-19T17:22:51.059Z,20.90
2019-02-19T17:25:34.968Z,20.67
2019-02-19T17:28:38.464Z,20.00
2019-02-19T17:31:39.071Z,22.60
2019-02-19T17:34:30.344Z,22.77
2019-02-19T17:37:09.372Z,24.40
2019-02-19T17:39:51.312Z,23.30
2019-02-19T17:42:36.255Z,28.23
2019-02-19T17:45:34.606Z,33.83
2019-02-19T17:48:22.239Z,56.03
2019-02-19T17:51:09.973Z,61.33
2019-02-19T17:54:16.584Z,84.30
2019-02-19T17:57:14.569Z,101.07
2019-02-19T18:00:03.172Z,65.60
2019-02-19T18:02:50.784Z,54.07
2019-02-19T18:05:37.910Z,33.20
2019-02-19T18:08:29.383Z,49.07
2019-02-19T18:11:13.271Z,34.83
2019-02-19T18:14:17.157Z,38.93
2019-02-19T18:17:14.458Z,40.90
2019-02-19T18:19:44.254Z,51.80
2019-02-19T18:22:13.871Z,42.63
2019-02-19T18:24:43.413Z,48.20
2019-02-19T18:27:12.991Z,64.83
2019-02-19T18:29:42.502Z,51.07
2019-02-19T18:32:12.081Z,35.80
2019-02-19T18:34:42.118Z,33.30
2019-02-19T18:37:11.852Z,30.20
2019-02-19T18:39:41.661Z,47.03
2019-02-19T18:42:11.260Z,38.47
2019-02-19T18:44:40.754Z,36.57
2019-02-19T18:47:10.543Z,30.53
2019-02-19T18:49:40.278Z,37.87
2019-02-19T18:52:11.129Z,47.73
2019-02-19T18:54:40.565Z,42.00
2019-02-19T18:57:13.042Z,41.03
2019-02-19T18:59:42.529Z,44.77
2019-02-19T19:02:13.031Z,26.93
2019-02-19T19:04:42.494Z,23.10
2019-02-19T19:07:12.034Z,17.13
2019-02-19T19:09:41.543Z,16.93
2019-02-19T19:12:11.127Z,25.20
2019-02-19T19:14:40.855Z,28.90
2019-02-19T19:17:10.629Z,43.33
2019-02-19T19:19:42.678Z,26.53
2019-02-19T19:22:12.377Z,41.50
2019-02-19T19:24:41.779Z,30.37
2019-02-19T19:27:11.619Z,32.73
2019-02-19T19:29:41.455Z,37.03
2019-02-19T19:32:11.261Z,29.27
2019-02-19T19:34:40.980Z,18.37
2019-02-19T19:37:10.478Z,24.10
2019-02-19T19:39:39.964Z,29.23
2019-02-19T19:42:09.352Z,38.40
2019-02-19T19:44:39.115Z,23.87
2019-02-19T19:47:08.683Z,26.53
2019-02-19T19:49:38.307Z,41.40
2019-02-19T19:52:08.103Z,63.37
2019-02-19T19:54:37.941Z,34.93
2019-02-19T19:57:07.742Z,49.90
2019-02-19T19:59:37.558Z,43.83
2019-02-19T20:02:07.579Z,40.80
2019-02-19T20:04:37.287Z,44.17
2019-02-19T20:07:06.980Z,36.03
2019-02-19T20:09:36.760Z,35.97
2019-02-19T20:12:06.420Z,33.87
2019-02-19T20:14:36.052Z,38.97
2019-02-19T20:17:05.447Z,31.00
2019-02-19T20:19:35.099Z,25.97
2019-02-19T20:22:04.780Z,20.30
2019-02-19T20:24:34.410Z,20.43
2019-02-19T20:27:04.307Z,22.13
2019-02-19T20:29:34.097Z,26.23
2019-02-19T20:32:03.766Z,17.93
2019-02-19T20:34:33.394Z,17.07
2019-02-19T20:37:03.242Z,20.17
2019-02-19T20:39:33.113Z,23.73
2019-02-19T20:42:02.867Z,25.23
2019-02-19T20:44:32.283Z,25.20
2019-02-19T20:47:02.130Z,23.27
2019-02-19T20:49:31.839Z,17.63
2019-02-19T20:52:01.438Z,16.57
2019-02-19T20:54:31.160Z,15.20
2019-02-19T20:57:01.042Z,16.57
2019-02-19T20:59:30.796Z,16.10
2019-02-19T21:02:00.256Z,17.20
2019-02-19T21:04:29.999Z,28.27
2019-02-19T21:07:01.662Z,19.43
2019-02-19T21:09:31.125Z,18.77
2019-02-19T21:12:00.625Z,21.03
2019-02-19T21:14:30.367Z,23.00
2019-02-19T21:17:00.038Z,15.40
2019-02-19T21:19:29.575Z,19.40
2019-02-19T21:21:59.085Z,24.13
2019-02-19T21:24:30.540Z,23.07
2019-02-19T21:26:59.988Z,26.23
2019-02-19T21:29:29.417Z,28.57
2019-02-19T21:31:59.155Z,25.63
2019-02-19T21:34:28.852Z,30.93
2019-02-19T21:36:58.614Z,29.67
2019-02-19T21:39:28.019Z,33.17
2019-02-19T21:41:57.782Z,37.87
2019-02-19T21:44:27.182Z,45.13
2019-02-19T21:46:56.835Z,50.77
2019-02-19T21:49:26.606Z,62.20
2019-02-19T21:51:56.196Z,57.40
2019-02-19T21:54:25.983Z,55.60
2019-02-19T21:56:55.681Z,49.17
2019-02-19T21:59:25.265Z,44.73
2019-02-19T22:01:54.834Z,39.37
2019-02-19T22:04:24.225Z,48.17
2019-02-19T22:06:53.945Z,38.37
2019-02-19T22:09:23.659Z,34.23
2019-02-19T22:11:53.251Z,36.43
2019-02-19T22:14:22.888Z,43.80
2019-02-19T22:16:52.594Z,47.23
2019-02-19T22:19:22.302Z,40.37
2019-02-19T22:22:03.700Z,37.77
2019-02-19T22:24:37.226Z,27.03
2019-02-19T22:27:08.217Z,28.17
2019-02-19T22:29:37.891Z,32.23
2019-02-19T22:32:08.608Z,25.53
2019-02-19T22:34:38.103Z,26.43
2019-02-19T22:37:07.657Z,27.53
2019-02-19T22:39:37.252Z,25.37
2019-02-19T22:42:06.999Z,24.90
2019-02-19T22:44:36.678Z,22.47
2019-02-19T22:47:06.094Z,19.37
2019-02-19T22:49:35.490Z,20.43
2019-02-19T22:52:12.357Z,23.70
2019-02-19T22:54:54.457Z,23.70
2019-02-19T22:57:24.168Z,21.53
2019-02-19T22:59:53.662Z,19.27
2019-02-19T23:02:25.563Z,17.53
2019-02-19T23:04:55.403Z,17.40
2019-02-19T23:07:25.182Z,17.80
2019-02-19T23:09:54.957Z,18.30
2019-02-19T23:12:24.547Z,20.27
2019-02-19T23:14:54.354Z,19.90
2019-02-19T23:17:24.096Z,17.97
2019-02-19T23:19:53.814Z,22.87
2019-02-19T23:22:23.503Z,26.10
2019-02-19T23:24:53.232Z,24.40
2019-02-19T23:27:22.817Z,19.40
2019-02-19T23:29:52.545Z,21.93
2019-02-19T23:32:22.234Z,19.33
2019-02-19T23:35:10.868Z,19.50
2019-02-19T23:37:40.690Z,16.20
2019-02-19T23:40:10.334Z,19.03
2019-02-19T23:42:39.960Z,19.67
2019-02-19T23:45:09.865Z,13.87
2019-02-19T23:47:39.276Z,12.87
2019-02-19T23:50:08.945Z,13.83
2019-02-19T23:52:38.781Z,14.00
2019-02-19T23:55:08.569Z,13.97
2019-02-19T23:57:38.156Z,17.37
